Terminal Aerodrome Forecast
Issued by NWS Cleveland, OH

Home | Current Version | Previous Version | Graphics & Text | Print | Product List | Glossary On
Versions: 1 2 3 4 5 6 7 8 9 10 11 12 13 14 15 16 17 18 19 20 21 22 23 24 25 26 27 28
000
FTUS41 KCLE 262211 AAB
TAFCLE
TAF AMD
KCLE 262211Z 2622/2724 30010KT P6SM SCT035 BKN120
     FM270700 12006KT 6SM -SHRA VCTS SCT015CB OVC025
     FM271300 03005KT 6SM BR SCT006 OVC015
     FM271600 02008KT P6SM BKN025=

USA.gov is the U.S. government's official web portal to all federal, state and local government web resources and services.